Aérodrome :
LOGIN :

S'inscrire | Disclaimer

   EN    FR    IT 

 










Légende :    VFR   VFR Marginal   IFR   IFR Intensif   IFR Très Intensif
Visi : 
Plafond : 
>= 8 km
>= 3000ft
5 à 8 km
1000 à 3000 ft
1500m à 5 km
500 à 1000 ft
800 à 1500m
200 à 500 ft
< 800m
< 200 ft
Symboles :   Orages  Brouillard  Fortes neiges  Fortes précipitations  Vent > 20 kt
SIGMETs :   Divers  Orages  Givrage  Turbulence  Onde Orograph.  Cendres Volcan.






- Altitude de l'aérodrome : 200 ft
- Code IATA : TCE


LRTC - Tulcea

DERNIER METAR :
  • 151500Z 31004KT CAVOK M01/M04 Q1014

METARs EXPIRÉS :
  • 151430Z VRB02KT CAVOK M00/M04 Q1014
  • 151400Z 01003KT 320V040 9999 FEW028 00/M04 Q1014
  • 151330Z 34005KT 9999 SCT028 00/M04 Q1014
  • 151300Z 34007KT 9999 BKN027 01/M04 Q1014
  • 151230Z 34008KT 9999 FEW019 SCT029 01/M04 Q1014

TAF TAF LRTC
Valide du 15 à 15h jusqu'au 16 à 00h UTC


151400Z 1515/1600 34006KT 9999 SCT030



MET'MAP, la Météo Aéronautique d'un coup d'oeil ! - Copyright ORBIFLY Décembre 2007 - Disclaimer

ORBIFLY MET'MAP TEAM :

Programmation & Développement : Alexandra Zaïnal
Sur une idée originale de : Baudouin d'Aumeries
Assistance à la programmation : Marc-Olivier Méhu
Soutien technique & logistique : Manuel Goepfert

Contact : metmap@orbifly.com




SOURCES & CREDITS :

   NOAA